Disclaimer

Please do not use the information listed here in-flight or in-navigation, as they are not provided to us by the airports but are provided by volunteers, so they might be outdated.

Search


Regions


Airport information page

Radio informations:
Tower (TWR) - 122.725 MHz

Airport informations:
Latitude: 58° 19' 05.00" N
Longitude: 012° 20' 42.00" E
Elevation: 137 feet - 42 meters
Operating hours: 24 hour operations
Operating agency: Civil government, landing fees and diplomatic clearance may be required
Timezone: UTC+1(+2DT) - Last Sunday in March to last Sunday in October
Fuel: Jet A1, without icing nhibitor.

100/130 MIL Spec, low lead, aviation gasoline (BLUE)

Runway information:
15/33 - 5610 x 98 feet< - >1710 x 30 meters

Recent METARs:
ESGT 181850Z 05009KT 020V080 9999 BKN023 05/01 Q1039
ESGT 181920Z 05013KT 9999 BKN023 05/01 Q1039
ESGT 181950Z AUTO 05013KT 9999 OVC024/// 05/01 Q1039

Airport on the map: